Web Počasí Slunečno.cz™ (Podmínky, ePrivacy) používá cookies a personalizace pro reklamní účely. Pohybem po stránce vyjadřujete souhlas. Odejít

Aktuální počasí v Česku a ve světě - METAR

Seznam meteostanic umístěných nejčasteji na letišti v ČR a ve světě

Vyhledat místa podle abecedy:
A B C D E F G H I J K L M N O P Q R S T U V W X Y Z

Filtrovat:

ID stanice:
a/nebo
Název místa (fulltext):
 
Místo (ID)Naposledy načteno 
Pardubice (Pardubice) 06.12.2021 19:00 UTC Zobrazit data
Místo: Pardubice
Teplota: 0 °C (pocitová: -4.3 °C)
Vítr: 1 m/s z(e) 290°
Počasí: sněží
Dohlednost: 10 km
Zákl. oblačnosti: 3/8 600 m;8/8 900 m
Vlhkost: 93%
Pec pod Sněžkou (Pec p.Snez) 06.12.2021 19:00 UTC Zobrazit data
Místo: Pec pod Sněžkou
Teplota: -4 °C (pocitová: -9.2 °C)
Vítr: 1 m/s z(e) 0°
Počasí: sněží
Dohlednost: 10 km
Zákl. oblačnosti: 2/8 480 m;8/8 990 m
Vlhkost: 86%
Plzeň město - Mikulka (Plzen/Miku) 06.12.2021 19:00 UTC Zobrazit data
Místo: Plzeň město - Mikulka
Teplota: 0 °C (pocitová: -4.3 °C)
Vítr: 1 m/s z(e) 0°
Počasí: sněží
Dohlednost: 3000 m
Zákl. oblačnosti: 6/8 210 m;8/8 600 m
Vlhkost: 93%
Polom (Polom) 06.12.2021 19:00 UTC Zobrazit data
Místo: Polom
Teplota: -4 °C (pocitová: -12.7 °C)
Vítr: 3 m/s z(e) 350°
Počasí: sněží
Dohlednost: 1200 m
Zákl. oblačnosti: 8/8 60 m
Vlhkost: 93%
Praha - Karlov (Praha/Kar) 06.12.2021 19:00 UTC Zobrazit data
Místo: Praha - Karlov
Teplota: 0 °C (pocitová: -7.3 °C)
Vítr: 3 m/s z(e) 320°
Počasí: zataženo
Dohlednost: 18 km
Zákl. oblačnosti: 2/8 390 m;4/8 630 m
Vlhkost: 80%
Praha - Kbely (Praha/Kbe) 06.12.2021 19:00 UTC Zobrazit data
Místo: Praha - Kbely
Teplota: -1 °C (pocitová: -7.2 °C)
Vítr: 2 m/s z(e) 310°
Počasí: zataženo
Dohlednost: 10 km
Zákl. oblačnosti: 2/8 510 m;8/8 1440 m
Vlhkost: 86%
Praha - Libuš (Praha/Lib) 06.12.2021 19:00 UTC Zobrazit data
Místo: Praha - Libuš
Teplota: 0 °C (pocitová: -5.9 °C)
Vítr: 2 m/s z(e) 340°
Počasí: zataženo
Dohlednost: 15 km
Zákl. oblačnosti: 4/8 420 m;8/8 1320 m
Vlhkost: 80%
Praha - Ruzyně (Praha/Ru) 06.12.2021 19:00 UTC Zobrazit data
Místo: Praha - Ruzyně
Teplota: -1 °C (pocitová: -8.7 °C)
Vítr: 3 m/s z(e) 340°
Počasí: zataženo
Dohlednost: 15 km
Zákl. oblačnosti: 2/8 270 m;8/8 1290 m
Vlhkost: 86%
Přibyslav (Pribyslav) 06.12.2021 19:00 UTC Zobrazit data
Místo: Přibyslav
Teplota: -2 °C (pocitová: -11.1 °C)
Vítr: 4 m/s z(e) 320°
Počasí: sněží
Dohlednost: 4000 m
Zákl. oblačnosti: 8/8 150 m
Vlhkost: 93%
Přimda (Primda) 06.12.2021 19:00 UTC Zobrazit data
Místo: Přimda
Teplota: -2 °C (pocitová: -8.5 °C)
Vítr: 2 m/s z(e) 270°
Počasí: zataženo
Dohlednost: 2000 m
Zákl. oblačnosti: 8/8 30 m
Vlhkost: 100%
Pago Pago (NSTU) 06.12.2021 19:50 UTC Zobrazit METAR
NSTU 061950Z 08009G16KT 12SM FEW023 SCT040 30/26 A2980 RMK SLP091 T03040263
Palanga (EYPA) 06.12.2021 19:50 UTC Zobrazit METAR
EYPA 061950Z VRB02KT CAVOK M13/M14 Q1017
Palermo (LICJ) 06.12.2021 19:50 UTC Zobrazit METAR
LICJ 061950Z 32025KT 9999 SCT025 BKN040 12/08 Q1004
Palma de Mallorca (LEPA) 06.12.2021 20:00 UTC Zobrazit METAR
LEPA 062000Z VRB02KT 9999 FEW030 13/07 Q1020 NOSIG
Panama City (MPTO) 06.12.2021 16:00 UTC Zobrazit METAR
MPTO 061600Z 04009KT 9000 SCT018 SCT090 30/25 Q1012 NOSIG
Paramaribo (SMZO) 06.12.2021 16:00 UTC Zobrazit METAR
SMZO 061600Z 06007KT 9999 SCT015 28/23 Q1012 NOSIG
Paris (LFPG) 06.12.2021 20:00 UTC Zobrazit METAR
LFPG 062000Z 23012KT 9999 FEW025 BKN032 06/04 Q1010 NOSIG
Paro (VQPR) 06.12.2021 11:00 UTC Zobrazit METAR
VQPR 061100Z 15010KT 9999 NSC 15/M01 Q1019
Phnom Penh (VDPP) 06.12.2021 20:00 UTC Zobrazit METAR
VDPP 062000Z 01006KT 9000 FEW017 21/20 Q1011
Plovdiv (LBPD) 06.12.2021 20:00 UTC Zobrazit METAR
LBPD 062000Z AUTO 24003KT 200V270 5000 BR FEW006/// BKN250/// 06/05 Q1003 TEMPO 3000 BR
Pohnpei I (PTPN) 06.12.2021 04:54 UTC Zobrazit METAR
PTPN 060454Z 08007KT 15SM SCT018 BKN130 OVC300 31/25 A2967
Ponta Delgada (LPPD) 06.12.2021 20:00 UTC Zobrazit METAR
LPPD 062000Z 26007KT 9999 FEW025 BKN040 17/10 Q1031
Pori (EFPO) 06.12.2021 19:50 UTC Zobrazit METAR
EFPO 061950Z AUTO 04003KT CAVOK M17/M18 Q1020
Port Moresby (AYPY) 06.12.2021 19:00 UTC Zobrazit METAR
AYPY 061900Z 33005KT 9999 BCFG SCT080 23/23 Q1006
Port of Spain (TTPP) 06.12.2021 20:00 UTC Zobrazit METAR
TTPP 062000Z 12013KT 090V150 9999 FEW022 30/21 Q1011 NOSIG
Port Vila (NVVV) 06.12.2021 20:00 UTC Zobrazit METAR
NVVV 062000Z VRB01KT 9999 SCT020 BKN040 27/25 Q1009
Port-au-Prince (MTPP) 06.12.2021 19:51 UTC Zobrazit METAR
MTPP 061951Z 11015KT 9999 SCT030 33/19 Q1014 A2994
Porto (LPPR) 06.12.2021 20:00 UTC Zobrazit METAR
LPPR 062000Z 19010KT 3500 -DZRA BR BKN002 13/13 Q1025
Poznan (EPPO) 06.12.2021 20:00 UTC Zobrazit METAR
EPPO 062000Z 04004KT 9999 SCT009 OVC042 M01/M03 Q1015
Prague (LKPR) 06.12.2021 20:00 UTC Zobrazit METAR
LKPR 062000Z 32003KT 280V340 9999 FEW020 OVC043 M01/M03 Q1013 NOSIG
Praia (GVFM) Zatím nenačteno  
Pyongyang (ZKPY) Zatím nenačteno  
Reklama

Reklama


Newslettter

Počasí na Váš email

Každý den Vám pošleme předpověď
Emaily chodí ráno a bez reklamy



Odhlásit newsletter

Reklama